createdAt,value
2023-05-10T00:00:55.854Z,18.20
2023-05-10T00:02:57.599Z,18.20
2023-05-10T00:04:59.347Z,18.10
2023-05-10T00:07:01.006Z,18.20
2023-05-10T00:09:02.762Z,18.10
2023-05-10T00:11:04.437Z,18.10
2023-05-10T00:13:06.137Z,18.10
2023-05-10T00:15:08.213Z,18.10
2023-05-10T00:17:09.892Z,18.10
2023-05-10T00:19:11.597Z,18.00
2023-05-10T00:21:13.311Z,18.00
2023-05-10T00:23:15.184Z,18.00
2023-05-10T00:25:16.855Z,18.10
2023-05-10T00:27:18.501Z,18.00
2023-05-10T00:29:20.666Z,18.00
2023-05-10T00:31:23.003Z,18.00
2023-05-10T00:33:25.861Z,18.00
2023-05-10T00:35:27.729Z,18.00
2023-05-10T00:37:29.357Z,18.00
2023-05-10T00:39:31.064Z,17.90
2023-05-10T00:41:35.647Z,17.90
2023-05-10T00:43:39.305Z,18.00
2023-05-10T00:45:41.269Z,17.90
2023-05-10T00:47:42.993Z,18.00
2023-05-10T00:49:44.975Z,17.90
2023-05-10T00:51:46.767Z,17.90
2023-05-10T00:53:49.334Z,17.90
2023-05-10T00:55:51.942Z,17.90
2023-05-10T00:57:54.126Z,17.90
2023-05-10T00:59:55.913Z,17.90
2023-05-10T01:01:58.552Z,17.90
2023-05-10T01:04:00.596Z,17.80
2023-05-10T01:06:02.519Z,17.90
2023-05-10T01:08:04.319Z,17.80
2023-05-10T01:10:09.267Z,17.80
2023-05-10T01:12:11.369Z,17.80
2023-05-10T01:14:13.058Z,17.80
2023-05-10T01:16:16.747Z,17.90
2023-05-10T01:18:20.392Z,17.80
2023-05-10T01:20:22.138Z,17.80
2023-05-10T01:22:42.973Z,17.80
2023-05-10T01:24:57.175Z,17.80
2023-05-10T01:27:10.915Z,17.70
2023-05-10T01:29:25.759Z,17.70
2023-05-10T01:31:27.478Z,17.70
2023-05-10T01:33:31.794Z,17.70
2023-05-10T01:35:39.512Z,17.70
2023-05-10T01:37:41.180Z,17.70
2023-05-10T01:39:47.295Z,17.80
2023-05-10T01:41:52.394Z,17.70
2023-05-10T01:44:01.314Z,17.70
2023-05-10T01:46:11.836Z,17.70
2023-05-10T01:48:14.957Z,17.70
2023-05-10T01:50:19.185Z,17.70
2023-05-10T01:52:23.481Z,17.70
2023-05-10T01:54:25.393Z,17.80
2023-05-10T01:56:27.783Z,17.90
2023-05-10T01:58:31.614Z,17.70
2023-05-10T02:00:34.201Z,17.70
2023-05-10T02:02:40.375Z,17.70
2023-05-10T02:04:43.159Z,17.70
2023-05-10T02:06:45.999Z,17.70
2023-05-10T02:08:48.698Z,17.70
2023-05-10T02:10:51.561Z,17.70
2023-05-10T02:12:54.376Z,17.70
2023-05-10T02:14:56.196Z,17.70
2023-05-10T02:16:59.538Z,17.70
2023-05-10T02:19:03.282Z,17.70
2023-05-10T02:21:05.580Z,17.70
2023-05-10T02:23:07.971Z,17.70
2023-05-10T02:25:10.162Z,17.70
2023-05-10T02:27:12.304Z,17.70
2023-05-10T02:29:14.969Z,17.70
2023-05-10T02:31:17.254Z,17.70
2023-05-10T02:33:19.515Z,17.70
2023-05-10T02:35:21.984Z,17.70
2023-05-10T02:37:24.823Z,17.70
2023-05-10T02:39:29.510Z,17.70
2023-05-10T02:41:33.664Z,17.70
2023-05-10T02:43:36.526Z,17.70
2023-05-10T02:45:39.847Z,17.70
2023-05-10T02:47:41.552Z,17.70
2023-05-10T02:49:43.829Z,17.70
2023-05-10T02:51:49.913Z,17.70
2023-05-10T02:53:52.019Z,17.70
2023-05-10T02:55:58.032Z,17.70
2023-05-10T02:58:01.011Z,17.70
2023-05-10T03:00:04.229Z,17.70
2023-05-10T03:02:06.082Z,17.70
2023-05-10T03:04:08.177Z,17.70
2023-05-10T03:06:10.486Z,17.70
2023-05-10T03:08:12.272Z,17.70
2023-05-10T03:10:14.427Z,17.70
2023-05-10T03:12:19.419Z,17.70
2023-05-10T03:14:35.678Z,17.70
2023-05-10T03:16:48.232Z,17.70
2023-05-10T03:18:57.407Z,17.70
2023-05-10T03:21:02.608Z,17.70
2023-05-10T03:23:19.771Z,17.70
2023-05-10T03:25:22.873Z,17.70
2023-05-10T03:27:26.935Z,17.70
2023-05-10T03:29:30.478Z,17.70
2023-05-10T03:31:32.388Z,17.70
2023-05-10T03:33:34.554Z,17.70
2023-05-10T03:35:36.307Z,17.70
2023-05-10T03:37:38.313Z,17.70
2023-05-10T03:39:40.875Z,17.70
2023-05-10T03:41:44.544Z,17.70
2023-05-10T03:43:46.441Z,17.70
2023-05-10T03:45:48.093Z,17.70
2023-05-10T03:47:49.831Z,17.70
2023-05-10T03:49:51.578Z,17.70
2023-05-10T03:51:53.530Z,17.70
2023-05-10T03:53:56.526Z,17.60
2023-05-10T03:55:58.223Z,17.70
2023-05-10T03:57:59.842Z,17.70
2023-05-10T04:00:01.659Z,17.70
2023-05-10T04:02:03.789Z,17.60
2023-05-10T04:04:05.575Z,17.60
2023-05-10T04:06:09.127Z,17.60
2023-05-10T04:08:10.783Z,17.60
2023-05-10T04:10:12.710Z,17.60
2023-05-10T04:12:14.404Z,17.60
2023-05-10T04:14:16.115Z,17.60
2023-05-10T04:16:17.802Z,17.60
2023-05-10T04:18:19.442Z,17.60
2023-05-10T04:20:21.175Z,17.60
2023-05-10T04:22:22.845Z,17.60
2023-05-10T04:24:24.656Z,17.60
2023-05-10T04:26:26.566Z,17.70
2023-05-10T04:28:28.246Z,17.60
2023-05-10T04:30:30.190Z,17.60
2023-05-10T04:32:32.474Z,17.60
2023-05-10T04:34:35.082Z,17.60
2023-05-10T04:36:37.617Z,17.60
2023-05-10T04:38:39.353Z,17.60
2023-05-10T04:40:41.068Z,17.60
2023-05-10T04:42:42.694Z,17.60
2023-05-10T04:44:47.015Z,17.60
2023-05-10T04:46:49.052Z,17.60
2023-05-10T04:48:51.829Z,17.60
2023-05-10T04:50:53.809Z,17.60
2023-05-10T04:52:56.022Z,17.60
2023-05-10T04:54:58.004Z,17.60
2023-05-10T04:56:59.675Z,17.60
2023-05-10T04:59:01.449Z,17.60
2023-05-10T05:01:06.947Z,17.50
2023-05-10T05:03:08.772Z,17.50
2023-05-10T05:05:13.676Z,17.50
2023-05-10T05:07:15.728Z,17.50
2023-05-10T05:09:17.380Z,17.50
2023-05-10T05:11:19.045Z,17.50
2023-05-10T05:13:20.803Z,17.50
2023-05-10T05:15:22.544Z,17.50
2023-05-10T05:17:24.190Z,17.50
2023-05-10T05:19:25.961Z,17.60
2023-05-10T05:21:28.114Z,17.60
2023-05-10T05:23:29.787Z,17.60
2023-05-10T05:25:31.479Z,17.60
2023-05-10T05:27:33.127Z,17.70
2023-05-10T05:29:34.840Z,17.60
2023-05-10T05:31:36.613Z,17.60
2023-05-10T05:33:38.402Z,17.60
2023-05-10T05:35:40.054Z,17.60
2023-05-10T05:37:41.677Z,17.60
2023-05-10T05:39:43.823Z,17.60
2023-05-10T05:41:45.602Z,17.60
2023-05-10T05:43:47.290Z,17.60
2023-05-10T05:45:48.984Z,17.70
2023-05-10T05:47:50.648Z,17.60
2023-05-10T05:49:52.320Z,17.60
2023-05-10T05:51:54.098Z,17.60
2023-05-10T05:53:56.224Z,17.60
2023-05-10T05:55:58.851Z,17.60
2023-05-10T05:58:00.661Z,17.60
2023-05-10T06:00:06.765Z,17.60
2023-05-10T06:02:14.335Z,17.60
2023-05-10T06:04:16.578Z,17.60
2023-05-10T06:06:18.314Z,17.60
2023-05-10T06:08:20.208Z,17.70
2023-05-10T06:10:21.836Z,17.60
2023-05-10T06:12:23.486Z,17.60
2023-05-10T06:14:25.163Z,17.60
2023-05-10T06:16:26.970Z,17.70
2023-05-10T06:18:28.648Z,17.70
2023-05-10T06:20:32.360Z,17.60
2023-05-10T06:22:34.173Z,17.60
2023-05-10T06:24:35.924Z,17.70
2023-05-10T06:26:37.621Z,17.60
2023-05-10T06:28:40.085Z,17.70
2023-05-10T06:30:41.806Z,17.70
2023-05-10T06:32:44.908Z,17.70
2023-05-10T06:34:47.375Z,17.60
2023-05-10T06:36:49.028Z,17.70
2023-05-10T06:38:52.177Z,17.70
2023-05-10T06:40:53.822Z,17.70
2023-05-10T06:42:55.494Z,17.70
2023-05-10T06:44:57.824Z,17.70
2023-05-10T06:46:59.585Z,17.70
2023-05-10T06:49:01.337Z,17.70
2023-05-10T06:51:03.043Z,17.80
2023-05-10T06:53:04.805Z,17.70
2023-05-10T06:55:06.837Z,17.70
2023-05-10T06:57:16.063Z,17.70
2023-05-10T06:59:28.486Z,17.70
2023-05-10T07:01:33.202Z,17.70
2023-05-10T07:03:38.024Z,17.70
2023-05-10T07:05:39.822Z,17.70
2023-05-10T07:07:41.626Z,17.80
2023-05-10T07:09:43.450Z,17.70
2023-05-10T07:11:45.088Z,17.70
2023-05-10T07:13:47.448Z,17.80
2023-05-10T07:15:49.243Z,17.80
2023-05-10T07:17:52.856Z,17.80
2023-05-10T07:19:54.835Z,17.80
2023-05-10T07:21:56.510Z,17.70
2023-05-10T07:23:58.560Z,17.80
2023-05-10T07:26:00.368Z,17.80
2023-05-10T07:28:02.072Z,17.80
2023-05-10T07:30:04.000Z,17.80
2023-05-10T07:32:07.155Z,17.80
2023-05-10T07:34:09.006Z,17.80
2023-05-10T07:36:10.759Z,17.90
2023-05-10T07:38:12.567Z,17.90
2023-05-10T07:40:14.219Z,17.90
2023-05-10T07:42:15.864Z,18.00
2023-05-10T07:44:20.084Z,17.90
2023-05-10T07:46:21.862Z,18.00
2023-05-10T07:48:23.523Z,18.00
2023-05-10T07:50:25.239Z,18.00
2023-05-10T07:52:26.875Z,18.00
2023-05-10T07:54:28.785Z,18.00
2023-05-10T07:56:32.742Z,18.00
2023-05-10T07:58:34.423Z,18.10
2023-05-10T08:00:36.202Z,18.10
2023-05-10T08:02:38.569Z,18.10
2023-05-10T08:04:40.589Z,18.20
2023-05-10T08:06:42.516Z,18.10
2023-05-10T08:08:44.684Z,18.20
2023-05-10T08:10:46.460Z,18.20
2023-05-10T08:12:48.155Z,18.30
2023-05-10T08:14:49.823Z,18.20
2023-05-10T08:16:51.482Z,18.30
2023-05-10T08:18:53.261Z,18.30
2023-05-10T08:20:54.934Z,18.40
2023-05-10T08:22:56.616Z,18.40
2023-05-10T08:24:58.296Z,18.30
2023-05-10T08:27:00.004Z,18.40
2023-05-10T08:29:01.723Z,18.40
2023-05-10T08:31:03.434Z,18.40
2023-05-10T08:33:05.312Z,18.40
2023-05-10T08:35:07.124Z,18.40
2023-05-10T08:37:08.869Z,18.40
2023-05-10T08:39:19.512Z,18.40
2023-05-10T08:41:29.349Z,18.40
2023-05-10T08:43:31.423Z,18.40
2023-05-10T08:45:34.133Z,18.40
2023-05-10T08:47:37.036Z,18.40
2023-05-10T08:49:38.804Z,18.40
2023-05-10T08:51:42.565Z,18.40
2023-05-10T08:53:46.467Z,18.40
2023-05-10T08:55:48.328Z,18.50
2023-05-10T08:57:50.105Z,18.60
2023-05-10T08:59:51.885Z,18.50
2023-05-10T09:01:54.921Z,18.50
2023-05-10T09:03:56.885Z,18.50
2023-05-10T09:05:58.922Z,18.60
2023-05-10T09:08:01.649Z,18.50
2023-05-10T09:10:03.992Z,18.50
2023-05-10T09:12:05.967Z,18.50
2023-05-10T09:14:08.093Z,18.50
2023-05-10T09:16:20.337Z,18.60
2023-05-10T09:18:23.279Z,18.60
2023-05-10T09:20:25.079Z,18.60
2023-05-10T09:22:27.240Z,18.60
2023-05-10T09:24:30.449Z,18.60
2023-05-10T09:26:32.214Z,18.70
2023-05-10T09:28:34.921Z,18.80
2023-05-10T09:30:36.817Z,18.60
2023-05-10T09:32:38.645Z,18.70
2023-05-10T09:34:42.136Z,18.80
2023-05-10T09:36:57.333Z,18.70
2023-05-10T09:38:59.118Z,18.70
2023-05-10T09:41:03.573Z,18.70
2023-05-10T09:43:07.777Z,18.70
2023-05-10T09:45:09.760Z,18.70
2023-05-10T09:47:11.570Z,18.70
2023-05-10T09:49:15.279Z,18.70
2023-05-10T09:51:23.540Z,18.70
2023-05-10T09:53:25.240Z,18.70
2023-05-10T09:55:38.598Z,18.70
2023-05-10T09:57:40.384Z,18.70
2023-05-10T09:59:43.655Z,18.70
2023-05-10T10:01:50.631Z,18.70
2023-05-10T10:03:52.696Z,18.70
2023-05-10T10:05:56.932Z,18.60
2023-05-10T10:08:00.544Z,18.70
2023-05-10T10:10:05.822Z,18.60
2023-05-10T10:12:07.458Z,18.70
2023-05-10T10:14:09.095Z,18.70
2023-05-10T10:16:10.970Z,18.70
2023-05-10T10:18:14.039Z,18.70
2023-05-10T10:20:16.339Z,18.70
2023-05-10T10:22:18.280Z,18.70
2023-05-10T10:24:20.028Z,18.70
2023-05-10T10:26:22.015Z,18.70
2023-05-10T10:28:39.100Z,18.80
2023-05-10T10:30:45.501Z,18.80
2023-05-10T10:32:47.230Z,18.80
2023-05-10T10:34:49.054Z,18.90
2023-05-10T10:36:50.860Z,18.90
2023-05-10T10:38:52.485Z,18.90
2023-05-10T10:41:04.061Z,19.00
2023-05-10T10:43:28.435Z,19.00
2023-05-10T10:45:30.457Z,19.00
2023-05-10T10:47:34.199Z,19.00
2023-05-10T10:49:42.444Z,19.00
2023-05-10T10:52:04.086Z,19.00
2023-05-10T10:54:12.518Z,19.00
2023-05-10T10:56:16.186Z,19.00
2023-05-10T10:58:31.737Z,18.90
2023-05-10T11:00:33.567Z,18.90
2023-05-10T11:02:43.769Z,18.90
2023-05-10T11:04:47.546Z,18.80
2023-05-10T11:06:49.445Z,18.80
2023-05-10T11:08:53.605Z,18.80
2023-05-10T11:11:01.205Z,18.80
2023-05-10T11:13:03.873Z,18.80
2023-05-10T11:15:10.009Z,18.80
2023-05-10T11:17:24.875Z,18.90
2023-05-10T11:19:28.472Z,18.90
2023-05-10T11:21:31.322Z,18.90
2023-05-10T11:23:48.355Z,19.00
2023-05-10T11:25:51.012Z,19.00
2023-05-10T11:27:52.673Z,19.00
2023-05-10T11:29:54.408Z,19.10
2023-05-10T11:31:58.305Z,19.10
2023-05-10T11:34:00.750Z,19.10
2023-05-10T11:36:02.495Z,19.20
2023-05-10T11:38:06.336Z,19.30
2023-05-10T11:40:11.328Z,19.30
2023-05-10T11:42:13.089Z,19.40
2023-05-10T11:44:14.751Z,19.50
2023-05-10T11:46:17.910Z,19.50
2023-05-10T11:48:23.271Z,19.50
2023-05-10T11:50:24.985Z,19.60
2023-05-10T11:52:26.923Z,19.60
2023-05-10T11:54:28.705Z,19.70
2023-05-10T11:56:33.312Z,19.70
2023-05-10T11:58:35.422Z,19.70
2023-05-10T12:00:37.135Z,19.80
2023-05-10T12:02:39.223Z,19.80
2023-05-10T12:04:41.198Z,19.70
2023-05-10T12:06:43.120Z,19.80
2023-05-10T12:08:46.010Z,19.70
2023-05-10T12:10:47.812Z,19.80
2023-05-10T12:12:53.401Z,19.80
2023-05-10T12:14:55.093Z,19.80
2023-05-10T12:16:58.288Z,19.90
2023-05-10T12:19:00.928Z,19.90
2023-05-10T12:21:04.546Z,19.90
2023-05-10T12:23:06.830Z,20.00
2023-05-10T12:25:09.583Z,20.00
2023-05-10T12:27:12.054Z,20.00
2023-05-10T12:29:14.984Z,20.10
2023-05-10T12:31:16.862Z,20.30
2023-05-10T12:33:19.003Z,20.30
2023-05-10T12:35:23.005Z,20.30
2023-05-10T12:37:28.578Z,20.30
2023-05-10T12:39:39.823Z,20.40
2023-05-10T12:41:43.467Z,20.40
2023-05-10T12:43:46.534Z,20.40
2023-05-10T12:45:49.767Z,20.40
2023-05-10T12:47:51.542Z,20.40
2023-05-10T12:49:53.252Z,20.40
2023-05-10T12:51:54.924Z,20.40
2023-05-10T12:53:56.666Z,20.40
2023-05-10T12:55:58.354Z,20.50
2023-05-10T12:58:00.050Z,20.50
2023-05-10T13:00:01.752Z,20.50
2023-05-10T13:02:03.555Z,20.50
2023-05-10T13:04:05.329Z,20.60
2023-05-10T13:06:07.465Z,20.50
2023-05-10T13:08:09.218Z,20.60
2023-05-10T13:10:11.549Z,20.60
2023-05-10T13:12:13.267Z,20.60
2023-05-10T13:14:15.356Z,20.70
2023-05-10T13:16:17.099Z,20.70
2023-05-10T13:18:19.009Z,20.80
2023-05-10T13:20:20.740Z,20.80
2023-05-10T13:22:32.500Z,20.90
2023-05-10T13:24:38.444Z,21.00
2023-05-10T13:26:41.199Z,21.00
2023-05-10T13:28:42.896Z,21.00
2023-05-10T13:30:44.608Z,21.00
2023-05-10T13:32:46.608Z,21.00
2023-05-10T13:34:48.369Z,21.10
2023-05-10T13:36:50.011Z,21.10
2023-05-10T13:38:51.790Z,21.10
2023-05-10T13:40:53.820Z,21.10
2023-05-10T13:42:55.705Z,21.20
2023-05-10T13:44:57.474Z,21.20
2023-05-10T13:46:59.247Z,21.20
2023-05-10T13:49:00.968Z,21.20
2023-05-10T13:51:02.596Z,21.20
2023-05-10T13:53:04.240Z,21.20
2023-05-10T13:55:06.000Z,21.20
2023-05-10T13:57:07.781Z,21.20
2023-05-10T13:59:09.434Z,21.30
2023-05-10T14:01:11.126Z,21.30
2023-05-10T14:03:12.975Z,21.30
2023-05-10T14:05:15.199Z,21.40
2023-05-10T14:07:17.185Z,21.40
2023-05-10T14:09:18.877Z,21.40
2023-05-10T14:11:22.102Z,21.40
2023-05-10T14:13:25.793Z,21.40
2023-05-10T14:15:27.475Z,21.40
2023-05-10T14:17:29.569Z,21.40
2023-05-10T14:19:33.528Z,21.40
2023-05-10T14:21:35.269Z,21.40
2023-05-10T14:23:37.078Z,21.40
2023-05-10T14:25:39.641Z,21.40
2023-05-10T14:27:41.340Z,21.40
2023-05-10T14:29:43.021Z,21.40
2023-05-10T14:31:44.824Z,21.40
2023-05-10T14:33:46.663Z,21.40
2023-05-10T14:35:48.508Z,21.40
2023-05-10T14:37:50.332Z,21.40
2023-05-10T14:39:52.031Z,21.40
2023-05-10T14:41:54.098Z,21.40
2023-05-10T14:43:56.256Z,21.40
2023-05-10T14:45:58.014Z,21.40
2023-05-10T14:48:00.249Z,21.40
2023-05-10T14:50:02.290Z,21.40
2023-05-10T14:52:04.135Z,21.30
2023-05-10T14:54:06.031Z,21.40
2023-05-10T14:56:08.036Z,21.30
2023-05-10T14:58:09.702Z,21.30
2023-05-10T15:00:12.336Z,21.30
2023-05-10T15:02:14.567Z,21.30
2023-05-10T15:04:17.795Z,21.30
2023-05-10T15:06:23.955Z,21.30
2023-05-10T15:08:25.767Z,21.30
2023-05-10T15:10:27.453Z,21.30
2023-05-10T15:12:29.138Z,21.40
2023-05-10T15:14:31.386Z,21.40
2023-05-10T15:16:35.811Z,21.40
2023-05-10T15:18:38.041Z,21.40
2023-05-10T15:20:39.740Z,21.40
2023-05-10T15:22:42.223Z,21.40
2023-05-10T15:24:43.889Z,21.40
2023-05-10T15:26:45.743Z,21.40
2023-05-10T15:28:47.487Z,21.40
2023-05-10T15:30:49.246Z,21.40
2023-05-10T15:32:51.057Z,21.40
2023-05-10T15:34:52.866Z,21.30
2023-05-10T15:36:54.537Z,21.40
2023-05-10T15:38:56.845Z,21.40
2023-05-10T15:40:59.057Z,21.40
2023-05-10T15:43:00.750Z,21.40
2023-05-10T15:45:02.438Z,21.30
2023-05-10T15:47:04.310Z,21.30
2023-05-10T15:49:06.778Z,21.30
2023-05-10T15:51:08.643Z,21.30
2023-05-10T15:53:10.420Z,21.30
2023-05-10T15:55:15.587Z,21.30
2023-05-10T15:57:17.499Z,21.20
2023-05-10T15:59:19.265Z,21.30
2023-05-10T16:01:21.264Z,21.30
2023-05-10T16:03:23.411Z,21.30
2023-05-10T16:05:27.395Z,21.30
2023-05-10T16:07:29.030Z,21.40
2023-05-10T16:09:32.433Z,21.40
2023-05-10T16:11:34.218Z,21.40
2023-05-10T16:13:35.973Z,21.50
2023-05-10T16:15:37.766Z,21.50
2023-05-10T16:17:39.490Z,21.60
2023-05-10T16:19:41.330Z,21.70
2023-05-10T16:21:43.028Z,21.60
2023-05-10T16:23:46.468Z,21.70
2023-05-10T16:25:48.221Z,21.70
2023-05-10T16:27:50.955Z,21.70
2023-05-10T16:29:52.681Z,21.70
2023-05-10T16:31:54.470Z,21.70
2023-05-10T16:33:56.129Z,21.70
2023-05-10T16:35:57.787Z,21.80
2023-05-10T16:37:59.561Z,21.70
2023-05-10T16:40:01.346Z,21.80
2023-05-10T16:42:03.213Z,21.80
2023-05-10T16:44:04.923Z,21.70
2023-05-10T16:46:10.166Z,21.70
2023-05-10T16:48:12.009Z,21.80
2023-05-10T16:50:14.892Z,21.70
2023-05-10T16:52:16.573Z,21.70
2023-05-10T16:54:18.575Z,21.70
2023-05-10T16:56:22.221Z,21.70
2023-05-10T16:58:24.033Z,21.70
2023-05-10T17:00:26.246Z,21.70
2023-05-10T17:02:28.034Z,21.70
2023-05-10T17:04:29.820Z,21.70
2023-05-10T17:06:31.481Z,21.60
2023-05-10T17:08:33.491Z,21.60
2023-05-10T17:10:36.120Z,21.60
2023-05-10T17:12:38.018Z,21.50
2023-05-10T17:14:40.137Z,21.40
2023-05-10T17:16:41.943Z,21.40
2023-05-10T17:18:45.732Z,21.40
2023-05-10T17:20:47.616Z,21.30
2023-05-10T17:22:49.316Z,21.30
2023-05-10T17:24:51.121Z,21.20
2023-05-10T17:26:53.617Z,21.20
2023-05-10T17:28:55.364Z,21.20
2023-05-10T17:30:57.749Z,21.10
2023-05-10T17:33:00.518Z,21.10
2023-05-10T17:35:03.664Z,21.00
2023-05-10T17:37:05.436Z,21.00
2023-05-10T17:39:07.107Z,21.00
2023-05-10T17:41:08.873Z,21.00
2023-05-10T17:43:10.933Z,20.90
2023-05-10T17:45:12.687Z,20.90
2023-05-10T17:47:14.446Z,20.90
2023-05-10T17:49:16.239Z,20.80
2023-05-10T17:51:18.638Z,20.80
2023-05-10T17:53:20.430Z,20.70
2023-05-10T17:55:22.184Z,20.70
2023-05-10T17:57:24.692Z,20.70
2023-05-10T17:59:26.470Z,20.60
2023-05-10T18:01:28.240Z,20.60
2023-05-10T18:03:30.253Z,20.60
2023-05-10T18:05:35.394Z,20.50
2023-05-10T18:07:37.180Z,20.50
2023-05-10T18:09:38.867Z,20.40
2023-05-10T18:11:40.613Z,20.40
2023-05-10T18:13:42.500Z,20.30
2023-05-10T18:15:44.502Z,20.30
2023-05-10T18:17:46.344Z,20.30
2023-05-10T18:19:48.206Z,20.20
2023-05-10T18:21:49.979Z,20.20
2023-05-10T18:23:51.657Z,20.10
2023-05-10T18:25:53.449Z,20.10
2023-05-10T18:27:55.162Z,20.00
2023-05-10T18:29:57.004Z,20.00
2023-05-10T18:31:58.716Z,19.90
2023-05-10T18:34:00.478Z,19.90
2023-05-10T18:36:02.390Z,19.80
2023-05-10T18:38:06.250Z,19.80
2023-05-10T18:40:11.015Z,19.70
2023-05-10T18:42:12.744Z,19.70
2023-05-10T18:44:14.590Z,19.70
2023-05-10T18:46:16.428Z,19.60
2023-05-10T18:48:18.247Z,19.60
2023-05-10T18:50:20.071Z,19.50
2023-05-10T18:52:21.853Z,19.50
2023-05-10T18:54:23.675Z,19.40
2023-05-10T18:56:25.449Z,19.40
2023-05-10T18:58:28.102Z,19.30
2023-05-10T19:00:29.874Z,19.30
2023-05-10T19:02:31.594Z,19.30
2023-05-10T19:04:33.531Z,19.20
2023-05-10T19:06:35.918Z,19.20
2023-05-10T19:08:37.737Z,19.10
2023-05-10T19:10:39.556Z,19.10
2023-05-10T19:12:41.746Z,19.00
2023-05-10T19:14:43.514Z,19.00
2023-05-10T19:16:45.524Z,19.00
2023-05-10T19:18:47.365Z,18.90
2023-05-10T19:20:49.355Z,18.90
2023-05-10T19:23:08.367Z,18.90
2023-05-10T19:25:13.118Z,18.90
2023-05-10T19:27:16.184Z,18.80
2023-05-10T19:29:18.058Z,18.80
2023-05-10T19:31:20.567Z,18.70
2023-05-10T19:33:22.411Z,18.60
2023-05-10T19:35:24.253Z,18.60
2023-05-10T19:37:27.460Z,18.50
2023-05-10T19:39:30.836Z,18.50
2023-05-10T19:41:32.931Z,18.50
2023-05-10T19:43:35.076Z,18.40
2023-05-10T19:45:38.901Z,18.40
2023-05-10T19:47:42.081Z,18.40
2023-05-10T19:49:44.031Z,18.40
2023-05-10T19:51:45.884Z,18.30
2023-05-10T19:53:47.612Z,18.30
2023-05-10T19:55:49.392Z,18.30
2023-05-10T19:57:51.135Z,18.20
2023-05-10T19:59:53.005Z,18.20
2023-05-10T20:01:54.891Z,18.10
2023-05-10T20:03:57.032Z,18.10
2023-05-10T20:05:58.884Z,18.10
2023-05-10T20:08:00.685Z,18.10
2023-05-10T20:10:02.942Z,18.00
2023-05-10T20:12:04.827Z,18.00
2023-05-10T20:14:06.973Z,17.90
2023-05-10T20:16:08.819Z,18.00
2023-05-10T20:18:10.764Z,18.00
2023-05-10T20:20:13.764Z,17.90
2023-05-10T20:22:15.479Z,17.90
2023-05-10T20:24:17.335Z,17.90
2023-05-10T20:26:19.087Z,17.90
2023-05-10T20:28:23.129Z,17.90
2023-05-10T20:30:24.930Z,17.80
2023-05-10T20:32:30.924Z,17.80
2023-05-10T20:34:35.168Z,17.80
2023-05-10T20:36:37.000Z,17.80
2023-05-10T20:38:39.269Z,17.80
2023-05-10T20:40:41.550Z,17.80
2023-05-10T20:42:43.384Z,17.80
2023-05-10T20:44:45.189Z,17.70
2023-05-10T20:46:47.235Z,17.70
2023-05-10T20:48:49.455Z,17.70
2023-05-10T20:50:51.841Z,17.70
2023-05-10T20:52:53.586Z,17.60
2023-05-10T20:54:55.548Z,17.60
2023-05-10T20:56:57.386Z,17.60
2023-05-10T20:58:59.212Z,17.60
2023-05-10T21:01:01.297Z,17.50
2023-05-10T21:03:03.126Z,17.50
2023-05-10T21:05:05.239Z,17.50
2023-05-10T21:07:07.055Z,17.40
2023-05-10T21:09:08.711Z,17.40
2023-05-10T21:11:10.419Z,17.40
2023-05-10T21:13:12.213Z,17.40
2023-05-10T21:15:14.010Z,17.40
2023-05-10T21:17:16.562Z,17.40
2023-05-10T21:19:19.809Z,17.40
2023-05-10T21:21:21.482Z,17.30
2023-05-10T21:23:23.198Z,17.30
2023-05-10T21:25:25.388Z,17.30
2023-05-10T21:27:27.198Z,17.30
2023-05-10T21:29:28.841Z,17.30
2023-05-10T21:31:31.750Z,17.30
2023-05-10T21:33:33.603Z,17.20
2023-05-10T21:35:35.535Z,17.20
2023-05-10T21:37:37.201Z,17.20
2023-05-10T21:39:38.914Z,17.20
2023-05-10T21:41:40.671Z,17.20
2023-05-10T21:43:42.777Z,17.20
2023-05-10T21:45:44.441Z,17.20
2023-05-10T21:47:46.147Z,17.20
2023-05-10T21:49:48.042Z,17.10
2023-05-10T21:51:49.706Z,17.10
2023-05-10T21:53:51.289Z,17.10
2023-05-10T21:55:55.137Z,17.10
2023-05-10T21:57:58.348Z,17.10
2023-05-10T22:00:00.027Z,17.10
2023-05-10T22:02:01.698Z,17.10
2023-05-10T22:04:03.434Z,17.00
2023-05-10T22:06:05.169Z,17.00
2023-05-10T22:08:06.981Z,17.00
2023-05-10T22:10:09.261Z,17.00
2023-05-10T22:12:12.861Z,17.00
2023-05-10T22:14:14.619Z,17.00
2023-05-10T22:16:16.394Z,16.90
2023-05-10T22:18:18.106Z,16.90
2023-05-10T22:20:20.955Z,17.00
2023-05-10T22:22:22.745Z,16.90
2023-05-10T22:24:24.399Z,16.90
2023-05-10T22:26:26.142Z,16.80
2023-05-10T22:28:28.267Z,16.80
2023-05-10T22:30:32.147Z,16.80
2023-05-10T22:32:34.703Z,16.80
2023-05-10T22:34:36.580Z,16.80
2023-05-10T22:36:38.221Z,16.80
2023-05-10T22:38:39.859Z,16.80
2023-05-10T22:40:41.913Z,16.70
2023-05-10T22:42:43.587Z,16.80
2023-05-10T22:44:45.276Z,16.70
2023-05-10T22:46:47.044Z,16.80
2023-05-10T22:48:48.721Z,16.70
2023-05-10T22:50:50.383Z,16.70
2023-05-10T22:52:52.129Z,16.70
2023-05-10T22:54:53.856Z,16.70
2023-05-10T22:56:56.106Z,16.70
2023-05-10T22:58:57.779Z,16.70
2023-05-10T23:00:59.431Z,16.70
2023-05-10T23:03:01.045Z,16.70
2023-05-10T23:05:02.898Z,16.60
2023-05-10T23:07:04.770Z,16.60
2023-05-10T23:09:06.481Z,16.60
2023-05-10T23:11:08.112Z,16.60
2023-05-10T23:13:09.737Z,16.60
2023-05-10T23:15:11.529Z,16.60
2023-05-10T23:17:13.571Z,16.60
2023-05-10T23:19:15.305Z,16.60
2023-05-10T23:21:17.566Z,16.50
2023-05-10T23:23:19.208Z,16.50
2023-05-10T23:25:20.920Z,16.50
2023-05-10T23:27:22.687Z,16.50
2023-05-10T23:29:26.158Z,16.50
2023-05-10T23:31:27.844Z,16.50
2023-05-10T23:33:29.576Z,16.40
2023-05-10T23:35:31.274Z,16.50
2023-05-10T23:37:32.890Z,16.40
2023-05-10T23:39:34.781Z,16.40
2023-05-10T23:41:36.434Z,16.40
2023-05-10T23:43:38.157Z,16.40
2023-05-10T23:45:39.851Z,16.40
2023-05-10T23:47:41.868Z,16.40
2023-05-10T23:49:43.552Z,16.50
2023-05-10T23:51:45.210Z,16.50
2023-05-10T23:53:46.888Z,16.40
2023-05-10T23:55:48.632Z,16.40
2023-05-10T23:57:50.311Z,16.40
2023-05-10T23:59:51.905Z,16.40
